Time;durP1;ratioP1;P1;durP2;ratioP2;P2;SDS_P1;SDS_P2;PMS_P1;PMS_P2;Temp;Humidity;BMP_temperature;BMP_pressure;BME280_temperature;BME280_humidity;BME280_pressure;Samples;Min_cycle;Max_cycle;Signal;HPM_P1;HPM_P2
2023/12/04 00:03:16;;;;;;;16.60;9.87;;;6.70;99.90;;;;;;10134618;29;20233;-81
2023/12/04 00:08:19;;;;;;;11.80;7.83;;;6.30;99.90;;;;;;10117957;29;20258;-81
2023/12/04 00:13:21;;;;;;;20.40;12.87;;;6.90;99.90;;;;;;10094981;29;20269;-81
2023/12/04 00:18:24;;;;;;;6.97;4.10;;;6.50;99.90;;;;;;10095051;29;20259;-81
2023/12/04 00:23:26;;;;;;;5.47;3.97;;;5.40;99.90;;;;;;10099090;29;20269;-81
2023/12/04 00:28:29;;;;;;;15.97;11.70;;;6.70;99.90;;;;;;10091118;29;20268;-81
2023/12/04 00:33:31;;;;;;;10.50;5.43;;;6.50;99.90;;;;;;10058937;29;20215;-80
2023/12/04 00:38:34;;;;;;;17.63;11.47;;;5.50;99.90;;;;;;10076748;29;20257;-81
2023/12/04 00:43:37;;;;;;;13.40;8.63;;;5.60;99.90;;;;;;10094410;29;20250;-80
2023/12/04 00:48:40;;;;;;;21.60;13.00;;;6.00;99.90;;;;;;10098670;29;20208;-81
2023/12/04 00:53:43;;;;;;;21.43;14.73;;;6.50;99.90;;;;;;10097456;29;20209;-81
2023/12/04 00:58:45;;;;;;;17.00;11.70;;;5.30;99.90;;;;;;10079321;29;20255;-81
2023/12/04 01:03:47;;;;;;;17.00;8.47;;;4.40;99.90;;;;;;10092411;29;20238;-81
2023/12/04 01:08:50;;;;;;;15.57;9.53;;;5.60;99.90;;;;;;10094585;29;20677;-81
2023/12/04 01:13:53;;;;;;;19.73;11.87;;;5.90;99.90;;;;;;10099428;29;20262;-81
2023/12/04 01:18:55;;;;;;;10.83;6.80;;;4.70;99.90;;;;;;10099540;29;20257;-81
2023/12/04 01:23:58;;;;;;;16.20;11.10;;;4.80;99.90;;;;;;10096503;29;20205;-81
2023/12/04 01:29:01;;;;;;;17.00;10.67;;;4.50;99.90;;;;;;10097268;29;20294;-81
2023/12/04 01:34:03;;;;;;;13.90;8.83;;;4.50;99.90;;;;;;10066010;29;20245;-80
2023/12/04 01:39:05;;;;;;;24.07;15.30;;;4.00;99.90;;;;;;10055913;29;20258;-81
2023/12/04 01:44:08;;;;;;;15.63;9.53;;;4.10;99.90;;;;;;10093296;29;20267;-81
2023/12/04 01:49:10;;;;;;;9.10;6.03;;;3.90;99.90;;;;;;10093258;29;20240;-81
2023/12/04 01:54:13;;;;;;;17.83;11.93;;;4.40;99.90;;;;;;10080830;29;20260;-81
2023/12/04 01:59:16;;;;;;;8.27;6.10;;;5.50;99.90;;;;;;10057248;29;20260;-81
2023/12/04 02:04:19;;;;;;;13.10;7.37;;;4.90;99.90;;;;;;10091566;29;20284;-80
2023/12/04 02:09:22;;;;;;;12.37;8.50;;;4.90;99.90;;;;;;10097390;29;20272;-80
2023/12/04 02:14:24;;;;;;;19.57;12.60;;;5.70;99.90;;;;;;10097411;29;20215;-81
2023/12/04 02:19:27;;;;;;;17.20;11.17;;;5.20;99.90;;;;;;10085032;29;20222;-80
2023/12/04 02:24:33;;;;;;;17.60;11.60;;;4.50;99.90;;;;;;10088362;29;20193;-81
2023/12/04 02:29:47;;;;;;;10.30;7.57;;;4.60;99.90;;;;;;10112400;29;20307;-80
2023/12/04 02:34:50;;;;;;;20.60;13.53;;;5.90;99.90;;;;;;10081712;29;20206;-80
2023/12/04 02:39:55;;;;;;;13.47;8.63;;;5.20;99.90;;;;;;10064284;29;20566;-81
2023/12/04 02:44:57;;;;;;;19.47;13.07;;;4.00;99.90;;;;;;10090132;29;20261;-80
2023/12/04 02:50:00;;;;;;;15.43;10.63;;;3.20;99.90;;;;;;10064417;29;20270;-80
2023/12/04 02:55:03;;;;;;;15.80;11.30;;;3.30;99.90;;;;;;10095720;29;20207;-81
2023/12/04 03:00:06;;;;;;;22.63;14.40;;;3.80;99.90;;;;;;10076660;29;20229;-80
2023/12/04 03:05:09;;;;;;;20.37;13.97;;;3.10;99.90;;;;;;10095075;29;20230;-80
2023/12/04 03:10:11;;;;;;;20.73;12.90;;;2.90;99.90;;;;;;10099434;29;20269;-80
2023/12/04 03:15:14;;;;;;;17.17;11.13;;;2.70;99.90;;;;;;10103436;29;20266;-79
2023/12/04 03:20:16;;;;;;;21.20;14.87;;;2.80;99.90;;;;;;10104274;29;20233;-80
2023/12/04 03:25:19;;;;;;;19.77;13.47;;;3.10;99.90;;;;;;10101610;29;20302;-81
2023/12/04 03:30:21;;;;;;;17.07;10.87;;;2.60;99.90;;;;;;10064568;29;20735;-80
2023/12/04 03:35:23;;;;;;;15.23;9.63;;;3.10;99.90;;;;;;10098076;29;20217;-82
2023/12/04 03:40:27;;;;;;;24.97;16.00;;;2.70;99.90;;;;;;10103844;29;20240;-80
2023/12/04 03:45:30;;;;;;;21.93;14.90;;;1.30;99.90;;;;;;10102912;29;20205;-81
2023/12/04 03:50:32;;;;;;;32.13;19.27;;;1.20;99.90;;;;;;10078908;29;20262;-80
2023/12/04 03:55:35;;;;;;;23.80;15.40;;;1.30;99.90;;;;;;10062500;29;20259;-81
2023/12/04 04:00:41;;;;;;;27.40;18.30;;;1.10;99.90;;;;;;10061899;29;20222;-81
2023/12/04 04:05:44;;;;;;;28.77;16.10;;;0.70;99.90;;;;;;10089505;29;20207;-81
2023/12/04 04:10:46;;;;;;;37.83;23.13;;;0.70;99.90;;;;;;10062154;29;20246;-80
2023/12/04 04:15:49;;;;;;;41.07;22.90;;;0.60;99.90;;;;;;10094396;29;20243;-80
2023/12/04 04:20:51;;;;;;;45.30;23.93;;;0.60;99.90;;;;;;10099498;29;20268;-81
2023/12/04 04:25:54;;;;;;;38.57;22.10;;;0.50;99.90;;;;;;10099138;29;20264;-82
2023/12/04 04:30:56;;;;;;;40.57;21.17;;;0.30;99.90;;;;;;10099105;29;20244;-81
2023/12/04 04:35:59;;;;;;;39.30;21.03;;;0.70;99.90;;;;;;10098331;29;20289;-81
2023/12/04 04:41:01;;;;;;;38.17;21.17;;;0.80;99.90;;;;;;10086470;29;20699;-80
2023/12/04 04:46:04;;;;;;;42.20;23.93;;;1.00;99.90;;;;;;10094891;29;20234;-81
2023/12/04 04:51:07;;;;;;;39.93;20.60;;;0.70;99.90;;;;;;10097469;29;20301;-81
2023/12/04 04:56:10;;;;;;;41.50;23.37;;;1.00;99.90;;;;;;10097003;29;20243;-81
2023/12/04 05:01:14;;;;;;;63.57;30.93;;;0.70;99.90;;;;;;10098175;29;20268;-81
2023/12/04 05:06:16;;;;;;;53.40;31.53;;;0.40;99.90;;;;;;10097110;29;20205;-80
2023/12/04 05:11:19;;;;;;;53.43;25.53;;;0.10;99.90;;;;;;10097804;29;20215;-81
2023/12/04 05:16:21;;;;;;;47.87;22.73;;;0.30;99.90;;;;;;10076378;29;20218;-81
2023/12/04 05:21:24;;;;;;;35.40;18.40;;;0.40;99.90;;;;;;10068731;29;20257;-81
2023/12/04 05:26:26;;;;;;;41.80;23.07;;;0.70;99.90;;;;;;10095273;29;20225;-81
2023/12/04 05:31:29;;;;;;;53.47;28.93;;;1.30;99.90;;;;;;10095471;29;20205;-81
2023/12/04 05:36:32;;;;;;;48.30;24.60;;;1.40;99.90;;;;;;10093740;29;20274;-81
2023/12/04 05:41:35;;;;;;;48.17;26.90;;;1.30;99.90;;;;;;10083953;29;20253;-81
2023/12/04 05:46:38;;;;;;;47.67;28.03;;;0.70;99.90;;;;;;10085229;29;20207;-80
2023/12/04 05:51:40;;;;;;;50.30;27.47;;;0.10;99.90;;;;;;10093749;29;20229;-81
2023/12/04 05:56:42;;;;;;;42.70;23.40;;;-0.30;99.90;;;;;;10095195;29;20265;-80
2023/12/04 06:01:45;;;;;;;49.87;25.03;;;-0.30;99.90;;;;;;10093955;29;20312;-81
2023/12/04 06:06:48;;;;;;;58.37;29.13;;;-0.30;99.90;;;;;;10089245;29;20304;-81
2023/12/04 06:11:50;;;;;;;53.40;28.63;;;-0.40;99.90;;;;;;10088184;29;20198;-80
2023/12/04 06:16:53;;;;;;;56.87;27.70;;;-0.50;99.90;;;;;;10093193;29;20204;-80
2023/12/04 06:21:56;;;;;;;48.83;25.07;;;-0.30;99.90;;;;;;10090054;29;20316;-81
2023/12/04 06:26:58;;;;;;;52.57;25.57;;;-0.50;99.90;;;;;;10087398;29;20264;-81
2023/12/04 06:32:01;;;;;;;62.83;33.93;;;-0.30;99.90;;;;;;10080510;29;20237;-79
2023/12/04 06:37:11;;;;;;;66.70;36.13;;;-0.80;99.90;;;;;;10066243;29;20285;-81
2023/12/04 06:42:14;;;;;;;49.47;26.30;;;-0.60;99.90;;;;;;10091632;29;20273;-82
2023/12/04 06:47:22;;;;;;;48.77;27.87;;;0.70;99.90;;;;;;10093121;29;20200;-81
2023/12/04 06:52:24;;;;;;;49.47;26.87;;;0.40;99.90;;;;;;10091236;29;20237;-81
2023/12/04 06:57:27;;;;;;;58.57;31.73;;;1.20;99.90;;;;;;10090383;29;20303;-81
2023/12/04 07:02:29;;;;;;;59.87;31.97;;;0.80;99.90;;;;;;10091671;29;20252;-82
2023/12/04 07:07:32;;;;;;;57.07;29.93;;;0.20;99.90;;;;;;10075185;29;20232;-81
2023/12/04 07:12:34;;;;;;;52.97;28.03;;;-0.30;99.90;;;;;;10090917;29;20252;-81
2023/12/04 07:17:38;;;;;;;46.33;28.27;;;-0.30;99.90;;;;;;10091855;29;20209;-81
2023/12/04 07:22:41;;;;;;;59.40;31.27;;;-0.40;99.90;;;;;;10090117;29;20268;-82
2023/12/04 07:27:44;;;;;;;66.73;36.30;;;-0.70;99.90;;;;;;10077735;29;20260;-81
2023/12/04 07:32:46;;;;;;;46.73;27.40;;;-0.70;99.90;;;;;;10068246;29;20230;-81
2023/12/04 07:37:49;;;;;;;51.90;28.60;;;-0.50;99.90;;;;;;10051974;29;20245;-81
2023/12/04 07:42:51;;;;;;;51.73;29.57;;;-0.80;99.90;;;;;;10051308;29;20290;-81
2023/12/04 07:47:54;;;;;;;54.90;30.37;;;-1.00;99.90;;;;;;10052740;29;20262;-81
2023/12/04 07:52:56;;;;;;;62.13;31.00;;;-0.80;99.90;;;;;;10058454;29;20241;-81
2023/12/04 07:57:59;;;;;;;57.60;30.50;;;-0.70;99.90;;;;;;10068716;29;20703;-81
2023/12/04 08:03:02;;;;;;;59.97;33.03;;;-0.40;99.90;;;;;;10056940;29;20326;-81
2023/12/04 08:08:05;;;;;;;58.70;30.40;;;-0.50;99.90;;;;;;10056448;29;20241;-81
2023/12/04 08:13:07;;;;;;;58.30;31.07;;;-0.40;99.90;;;;;;10075928;29;20241;-81
2023/12/04 08:18:10;;;;;;;46.27;26.23;;;-0.20;99.90;;;;;;10095370;29;20240;-80
2023/12/04 08:23:12;;;;;;;58.60;31.53;;;-0.10;99.90;;;;;;10086762;29;20260;-81
2023/12/04 08:28:15;;;;;;;46.57;25.83;;;0.00;99.90;;;;;;10075743;29;20260;-81
2023/12/04 08:33:20;;;;;;;50.43;30.30;;;0.10;99.90;;;;;;10074656;29;20563;-80
2023/12/04 08:38:22;;;;;;;45.40;26.27;;;0.10;99.90;;;;;;10057781;29;20229;-80
2023/12/04 08:43:25;;;;;;;50.63;27.93;;;0.10;99.90;;;;;;10065723;29;20340;-80
2023/12/04 08:48:27;;;;;;;49.70;30.07;;;0.10;99.90;;;;;;10093129;29;20766;-80
2023/12/04 08:53:30;;;;;;;55.40;32.47;;;0.20;99.90;;;;;;10067522;29;20628;-80
2023/12/04 08:58:33;;;;;;;62.13;32.97;;;0.20;99.90;;;;;;10068189;29;20690;-80
2023/12/04 09:03:35;;;;;;;57.13;33.60;;;0.60;99.90;;;;;;10091874;29;20264;-80
2023/12/04 09:08:38;;;;;;;47.80;28.13;;;0.70;99.90;;;;;;10067703;29;20287;-80
2023/12/04 09:13:50;;;;;;;41.10;23.93;;;0.90;99.90;;;;;;10057956;29;20237;-80
2023/12/04 09:18:53;;;;;;;45.20;30.33;;;1.40;99.90;;;;;;10093190;29;20237;-80
2023/12/04 09:23:56;;;;;;;46.90;29.27;;;1.20;99.90;;;;;;10085955;29;20256;-80
2023/12/04 09:28:59;;;;;;;50.93;27.27;;;0.90;99.90;;;;;;10080079;29;20345;-81
2023/12/04 09:34:01;;;;;;;50.53;28.63;;;0.70;99.90;;;;;;10067316;29;20262;-81
2023/12/04 09:39:04;;;;;;;51.10;28.40;;;0.30;99.90;;;;;;10084450;29;20236;-81
2023/12/04 09:44:07;;;;;;;49.17;26.83;;;-0.10;99.90;;;;;;10061445;29;20728;-80
2023/12/04 09:49:10;;;;;;;52.50;26.67;;;-0.30;99.90;;;;;;10067137;29;20229;-80
2023/12/04 09:54:17;;;;;;;44.37;25.90;;;-0.20;99.90;;;;;;10078099;29;20818;-80
2023/12/04 09:59:25;;;;;;;43.77;27.03;;;-0.10;99.90;;;;;;10085632;29;20294;-81
2023/12/04 10:04:28;;;;;;;38.10;21.33;;;-0.10;99.90;;;;;;10077827;29;20292;-80
2023/12/04 10:09:30;;;;;;;47.30;27.00;;;0.00;99.90;;;;;;10090836;29;20229;-80
2023/12/04 10:14:33;;;;;;;50.00;28.70;;;0.00;99.90;;;;;;10053006;29;20641;-80
2023/12/04 10:19:35;;;;;;;47.43;26.93;;;-0.10;99.90;;;;;;10051638;29;20253;-80
2023/12/04 10:24:38;;;;;;;41.23;23.60;;;0.00;99.90;;;;;;10051363;29;20704;-81
2023/12/04 10:29:47;;;;;;;44.27;23.60;;;-0.10;99.90;;;;;;10071101;29;20260;-81
2023/12/04 10:34:50;;;;;;;38.83;21.33;;;0.00;99.90;;;;;;10087227;29;20244;-80
2023/12/04 10:39:53;;;;;;;36.97;22.53;;;-0.10;99.90;;;;;;10088028;29;20281;-80
2023/12/04 10:44:57;;;;;;;38.57;23.07;;;0.00;99.90;;;;;;10088766;29;20276;-80
2023/12/04 10:50:01;;;;;;;37.23;22.87;;;0.10;99.90;;;;;;10088254;29;20292;-81
2023/12/04 10:55:06;;;;;;;30.83;19.17;;;0.10;99.90;;;;;;10088862;29;20697;-81
2023/12/04 11:00:10;;;;;;;45.30;26.10;;;0.10;99.90;;;;;;10089124;29;20253;-81
2023/12/04 11:05:17;;;;;;;37.50;20.93;;;0.60;99.90;;;;;;10087699;29;20245;-81
2023/12/04 11:10:24;;;;;;;53.73;30.20;;;1.20;99.90;;;;;;10088528;29;20248;-81
2023/12/04 11:15:29;;;;;;;51.83;30.43;;;1.70;99.90;;;;;;10087572;29;20348;-81
2023/12/04 11:20:39;;;;;;;47.93;29.30;;;1.90;99.90;;;;;;10088406;29;20312;-81
2023/12/04 11:25:43;;;;;;;23.37;14.77;;;1.50;99.90;;;;;;10092505;29;20272;-81
2023/12/04 11:30:47;;;;;;;38.47;23.90;;;1.50;99.90;;;;;;10094660;29;20693;-81
2023/12/04 11:35:50;;;;;;;42.37;24.97;;;1.50;99.90;;;;;;10094555;29;20705;-81
2023/12/04 11:40:53;;;;;;;35.63;22.57;;;1.60;99.90;;;;;;10094078;29;20260;-81
2023/12/04 11:46:08;;;;;;;41.50;25.70;;;2.00;99.90;;;;;;10085556;29;20276;-80
2023/12/04 11:51:33;;;;;;;43.40;26.53;;;2.00;99.90;;;;;;10087822;29;20625;-81
2023/12/04 11:56:36;;;;;;;36.93;23.93;;;1.90;99.90;;;;;;10069664;29;20694;-80
2023/12/04 12:01:41;;;;;;;43.80;27.97;;;2.20;99.90;;;;;;10067431;29;20252;-80
2023/12/04 12:06:44;;;;;;;36.77;20.83;;;2.30;99.90;;;;;;10092100;29;20620;-80
2023/12/04 12:11:49;;;;;;;25.97;14.07;;;2.30;99.90;;;;;;10079260;29;20225;-77
2023/12/04 12:16:51;;;;;;;50.57;29.67;;;2.50;99.90;;;;;;10093884;29;20248;-77
2023/12/04 12:21:54;;;;;;;40.20;24.80;;;3.10;99.90;;;;;;10095491;29;20893;-78
2023/12/04 12:26:56;;;;;;;43.50;28.10;;;2.90;99.90;;;;;;10094791;29;20276;-77
2023/12/04 12:31:59;;;;;;;38.87;23.93;;;3.10;99.90;;;;;;10095192;29;20756;-77
2023/12/04 12:37:03;;;;;;;29.67;19.00;;;2.70;99.90;;;;;;10094371;29;20293;-78
2023/12/04 12:42:07;;;;;;;42.83;28.63;;;2.60;99.90;;;;;;10094957;29;20250;-78
2023/12/04 12:47:10;;;;;;;40.63;24.83;;;2.50;99.90;;;;;;10094934;29;20651;-78
2023/12/04 12:52:13;;;;;;;50.63;31.10;;;2.50;99.90;;;;;;10094698;29;20288;-78
2023/12/04 12:57:15;;;;;;;40.53;24.73;;;2.40;99.90;;;;;;10094623;29;20780;-78
2023/12/04 13:02:20;;;;;;;52.43;31.90;;;2.00;99.90;;;;;;10094120;29;20273;-77
2023/12/04 13:07:22;;;;;;;49.77;30.70;;;1.70;99.90;;;;;;10094054;29;20241;-77
2023/12/04 13:12:25;;;;;;;50.57;31.30;;;1.40;99.90;;;;;;10093856;29;20245;-78
2023/12/04 13:17:28;;;;;;;54.27;30.57;;;1.30;99.90;;;;;;10093409;29;20248;-78
2023/12/04 13:22:33;;;;;;;52.43;31.67;;;1.20;99.90;;;;;;10093139;29;20723;-78
2023/12/04 13:27:38;;;;;;;63.57;34.60;;;1.10;99.90;;;;;;10093213;29;20332;-78
2023/12/04 13:32:41;;;;;;;54.57;32.23;;;1.30;99.90;;;;;;10092248;29;20729;-77
2023/12/04 13:37:43;;;;;;;44.63;27.53;;;0.80;99.90;;;;;;10093164;29;20244;-78
2023/12/04 13:48:08;;;;;;;41.40;24.90;;;0.40;99.90;;;;;;10091290;29;20248;-77
2023/12/04 13:53:12;;;;;;;47.77;30.70;;;0.50;99.90;;;;;;10091074;29;20269;-78
2023/12/04 14:03:37;;;;;;;48.17;29.30;;;0.00;99.90;;;;;;10091430;29;20272;-78
2023/12/04 14:08:39;;;;;;;33.13;19.57;;;-0.20;99.90;;;;;;10080057;29;20274;-80
2023/12/04 14:13:42;;;;;;;50.00;30.73;;;0.70;99.90;;;;;;10078050;29;20787;-80
2023/12/04 14:18:45;;;;;;;46.73;26.07;;;0.80;99.90;;;;;;10058876;29;20281;-80
2023/12/04 14:23:48;;;;;;;52.23;31.37;;;0.00;99.90;;;;;;10072848;29;20289;-80
2023/12/04 14:28:51;;;;;;;47.47;29.90;;;-0.60;99.90;;;;;;10086664;29;20725;-80
2023/12/04 14:33:53;;;;;;;55.67;31.93;;;-0.40;99.90;;;;;;10089991;29;20245;-80
2023/12/04 14:38:56;;;;;;;56.00;32.47;;;-0.70;99.90;;;;;;10052195;29;20709;-80
2023/12/04 14:44:01;;;;;;;52.57;29.70;;;-1.00;99.90;;;;;;10076461;29;20261;-81
2023/12/04 14:49:04;;;;;;;51.33;31.07;;;-0.80;99.90;;;;;;10089778;29;20241;-80
2023/12/04 14:54:36;;;;;;;55.30;33.50;;;-0.30;99.90;;;;;;10093848;29;20256;-81
2023/12/04 15:05:29;;;;;;;66.17;39.23;;;-0.80;99.90;;;;;;10105481;29;20719;-81
2023/12/04 15:21:01;;;;;;;78.23;51.33;;;-1.10;99.90;;;;;;10102547;29;20794;-81
2023/12/04 15:26:05;;;;;;;70.97;38.83;;;-0.90;99.90;;;;;;10102784;29;20308;-81
2023/12/04 15:31:07;;;;;;;67.27;39.03;;;-1.10;99.90;;;;;;10108737;29;20244;-80
2023/12/04 15:36:10;;;;;;;64.13;34.77;;;-1.00;99.90;;;;;;10103794;29;20240;-80
2023/12/04 15:41:14;;;;;;;49.30;28.50;;;-0.50;99.90;;;;;;9756972;29;9999773;-80
2023/12/04 15:46:17;;;;;;;65.80;37.73;;;0.00;99.90;;;;;;10087232;29;21219;-81
2023/12/04 15:51:21;;;;;;;55.87;28.90;;;0.40;99.90;;;;;;10087274;29;20246;-80
2023/12/04 15:56:23;;;;;;;58.97;33.73;;;2.20;99.90;;;;;;10085457;29;20243;-80
2023/12/04 16:01:26;;;;;;;48.20;29.47;;;2.30;99.90;;;;;;10074565;29;20253;-81
2023/12/04 16:06:31;;;;;;;54.07;29.33;;;2.00;99.90;;;;;;10088386;29;20254;-81
2023/12/04 16:11:33;;;;;;;51.27;29.03;;;1.90;99.90;;;;;;10089073;29;20218;-81
2023/12/04 16:16:37;;;;;;;70.10;40.70;;;1.80;99.90;;;;;;10095172;29;20246;-81
2023/12/04 16:21:40;;;;;;;51.23;28.43;;;1.70;99.90;;;;;;10093432;29;20266;-81
2023/12/04 16:26:42;;;;;;;81.03;46.80;;;1.50;99.90;;;;;;9739090;29;9999807;-81
2023/12/04 16:31:45;;;;;;;54.07;34.10;;;1.80;99.90;;;;;;10078547;29;20717;-81
2023/12/04 16:36:48;;;;;;;48.57;30.27;;;1.50;99.90;;;;;;10089753;29;20335;-80
2023/12/04 16:41:50;;;;;;;58.70;32.23;;;1.50;99.90;;;;;;10094502;29;20266;-81
2023/12/04 16:46:55;;;;;;;74.70;49.63;;;2.10;99.90;;;;;;10079726;29;20237;-80
2023/12/04 16:51:58;;;;;;;80.30;45.33;;;3.10;99.90;;;;;;10080747;29;20687;-79
2023/12/04 16:57:00;;;;;;;73.83;40.37;;;0.30;99.90;;;;;;10088869;29;20261;-77
2023/12/04 17:02:03;;;;;;;51.67;27.83;;;0.50;99.90;;;;;;10093761;29;20260;-77
2023/12/04 17:07:06;;;;;;;52.57;27.53;;;1.20;99.90;;;;;;10093827;29;20224;-77
2023/12/04 17:12:08;;;;;;;62.13;36.23;;;2.10;99.90;;;;;;10093815;29;20306;-77
2023/12/04 17:17:11;;;;;;;67.80;40.17;;;2.70;99.90;;;;;;10093657;29;20246;-77
2023/12/04 17:22:13;;;;;;;74.80;42.40;;;2.50;99.90;;;;;;10091454;29;20258;-77
2023/12/04 17:27:16;;;;;;;57.80;28.87;;;3.10;99.90;;;;;;10092697;29;20263;-77
2023/12/04 17:32:18;;;;;;;63.07;34.13;;;3.10;99.90;;;;;;10092596;29;20243;-77
2023/12/04 17:37:22;;;;;;;79.93;40.97;;;3.20;99.90;;;;;;10092359;29;20234;-77
2023/12/04 17:42:25;;;;;;;67.00;35.93;;;3.00;99.90;;;;;;10111692;29;20300;-77
2023/12/04 17:47:28;;;;;;;67.73;36.43;;;2.70;99.90;;;;;;10105585;29;20234;-77
2023/12/04 17:52:31;;;;;;;68.47;35.20;;;2.90;99.90;;;;;;10099995;29;20239;-77
2023/12/04 17:57:35;;;;;;;84.03;43.77;;;3.00;99.90;;;;;;9761818;29;10000189;-76
2023/12/04 18:02:38;;;;;;;100.57;59.70;;;2.90;99.90;;;;;;10083509;29;20220;-78
2023/12/04 18:07:42;;;;;;;100.83;58.27;;;3.80;99.90;;;;;;10078078;29;20237;-78
2023/12/04 18:12:46;;;;;;;91.93;57.33;;;-0.20;99.90;;;;;;10089280;29;20292;-78
2023/12/04 18:17:49;;;;;;;102.07;61.63;;;;;;;;;;10095075;29;20299;-78
2023/12/04 18:22:53;;;;;;;109.70;61.97;;;;;;;;;;10103188;29;20491;-78
2023/12/04 18:27:58;;;;;;;106.20;59.17;;;;;;;;;;10106375;29;20264;-78
2023/12/04 18:33:02;;;;;;;109.67;58.60;;;;;;;;;;10102903;29;20653;-78
2023/12/04 18:38:12;;;;;;;113.77;61.03;;;;;;;;;;10088111;29;20242;-78
2023/12/04 18:43:17;;;;;;;104.73;59.20;;;;;;;;;;10111264;29;20752;-79
2023/12/04 18:48:23;;;;;;;111.27;65.00;;;-3.60;99.90;;;;;;10108041;29;20676;-79
2023/12/04 18:53:26;;;;;;;138.23;67.03;;;-3.70;99.90;;;;;;10105458;29;20201;-78
2023/12/04 18:58:29;;;;;;;137.57;74.87;;;-3.70;99.90;;;;;;10079637;29;20252;-78
2023/12/04 19:03:31;;;;;;;113.43;66.65;;;-3.80;99.90;;;;;;10090854;29;20492;-79
2023/12/04 19:08:34;;;;;;;103.93;62.37;;;-3.80;99.90;;;;;;10105291;29;20258;-78
2023/12/04 19:13:36;;;;;;;107.17;63.23;;;-3.90;99.90;;;;;;10103334;29;20286;-79
2023/12/04 19:18:39;;;;;;;103.43;62.27;;;-4.10;99.90;;;;;;10106191;29;20240;-79
2023/12/04 19:23:42;;;;;;;100.33;59.40;;;-4.10;99.90;;;;;;10106285;29;20374;-79
2023/12/04 19:28:44;;;;;;;97.90;52.97;;;-4.20;99.90;;;;;;10095772;29;20268;-80
2023/12/04 19:33:47;;;;;;;95.80;52.40;;;1.20;99.90;;;;;;10101386;29;20734;-79
2023/12/04 19:38:49;;;;;;;93.30;53.50;;;0.40;99.90;;;;;;10100723;29;20645;-79
2023/12/04 19:43:53;;;;;;;98.28;62.35;;;-2.10;99.90;;;;;;10097020;29;20484;-79
2023/12/04 19:48:56;;;;;;;88.43;52.83;;;-0.20;99.90;;;;;;10116373;29;20228;-79
2023/12/04 19:53:58;;;;;;;75.57;46.20;;;-2.00;99.90;;;;;;10115106;29;20506;-80
2023/12/04 19:59:01;;;;;;;73.30;45.00;;;-1.60;99.90;;;;;;10112329;29;20540;-81
2023/12/04 20:04:04;;;;;;;70.27;41.83;;;4.30;99.90;;;;;;10104790;29;20727;-82
2023/12/04 20:09:07;;;;;;;57.80;34.60;;;5.80;99.90;;;;;;10113713;29;20292;-82
2023/12/04 20:14:10;;;;;;;60.70;37.87;;;6.30;99.90;;;;;;10109544;29;20344;-81
2023/12/04 20:19:12;;;;;;;73.80;41.47;;;6.80;99.90;;;;;;10109903;29;20236;-82
2023/12/04 20:24:15;;;;;;;60.27;37.23;;;7.30;99.90;;;;;;10111704;29;20269;-82
2023/12/04 20:29:17;;;;;;;53.87;35.30;;;7.30;99.90;;;;;;10117337;29;20674;-80
2023/12/04 20:34:20;;;;;;;64.10;39.57;;;7.30;99.90;;;;;;10115162;29;20228;-79
2023/12/04 20:39:23;;;;;;;77.30;41.70;;;7.10;99.90;;;;;;10109422;29;20591;-80
2023/12/04 20:44:26;;;;;;;141.33;94.27;;;7.40;99.90;;;;;;10064777;29;20260;-80
2023/12/04 20:49:28;;;;;;;76.33;45.50;;;7.50;99.90;;;;;;10098098;29;20200;-80
2023/12/04 20:54:31;;;;;;;62.10;38.83;;;7.20;99.90;;;;;;10086418;29;20583;-81
2023/12/04 20:59:33;;;;;;;62.87;39.77;;;7.50;99.90;;;;;;10099798;29;20284;-79
2023/12/04 21:04:36;;;;;;;60.37;38.13;;;7.30;99.90;;;;;;10112398;29;20751;-79
2023/12/04 21:09:41;;;;;;;66.53;42.30;;;6.90;99.90;;;;;;10113765;29;20638;-79
2023/12/04 21:14:43;;;;;;;66.43;41.93;;;5.70;99.90;;;;;;10111898;29;20686;-79
2023/12/04 21:19:46;;;;;;;57.60;32.40;;;1.10;99.90;;;;;;10110248;29;20288;-79
2023/12/04 21:24:50;;;;;;;68.30;41.00;;;-0.90;99.90;;;;;;10106862;29;20649;-79
2023/12/04 21:29:52;;;;;;;68.10;43.53;;;-1.90;99.90;;;;;;10103620;29;20308;-78
2023/12/04 21:34:56;;;;;;;71.60;42.87;;;-2.50;99.90;;;;;;10106806;29;20285;-78
2023/12/04 21:39:58;;;;;;;34.27;20.10;;;-3.30;99.90;;;;;;10100725;29;20248;-78
2023/12/04 21:45:01;;;;;;;67.83;42.23;;;-2.90;99.90;;;;;;10106717;29;20259;-79
2023/12/04 21:50:04;;;;;;;69.07;41.10;;;-2.70;99.90;;;;;;10105608;29;20240;-78
2023/12/04 21:55:08;;;;;;;416.63;85.80;;;-2.80;99.90;;;;;;10112983;29;20628;-79
2023/12/04 22:00:11;;;;;;;59.03;28.60;;;-2.60;99.90;;;;;;10110528;29;20264;-81
2023/12/04 22:05:14;;;;;;;38.93;20.90;;;-0.60;99.90;;;;;;10092516;29;20733;-81
2023/12/04 22:10:17;;;;;;;50.83;28.93;;;0.30;99.90;;;;;;10098120;29;20232;-81
2023/12/04 22:15:20;;;;;;;53.87;26.73;;;1.50;99.90;;;;;;10105769;29;20244;-81
2023/12/04 22:20:22;;;;;;;49.03;28.17;;;1.90;99.90;;;;;;10107977;29;20229;-81
2023/12/04 22:25:25;;;;;;;44.30;22.17;;;2.10;99.90;;;;;;10109576;29;20686;-81
2023/12/04 22:30:28;;;;;;;48.10;27.03;;;2.20;99.90;;;;;;10098230;29;20231;-80
2023/12/04 22:35:30;;;;;;;42.60;23.07;;;2.80;99.90;;;;;;10090867;29;20236;-80
2023/12/04 22:40:33;;;;;;;44.43;25.07;;;2.90;99.90;;;;;;10083844;29;20254;-81
2023/12/04 22:45:35;;;;;;;41.30;23.33;;;3.10;99.90;;;;;;10086492;29;20646;-81
2023/12/04 22:50:37;;;;;;;58.73;31.10;;;3.50;99.90;;;;;;10089658;29;20704;-81
2023/12/04 22:55:40;;;;;;;50.50;25.30;;;3.60;99.90;;;;;;10089951;29;20273;-81
2023/12/04 23:00:42;;;;;;;39.57;21.47;;;3.50;99.90;;;;;;10091103;29;20575;-81
2023/12/04 23:05:45;;;;;;;38.97;19.30;;;3.90;99.90;;;;;;10088701;29;20706;-81
2023/12/04 23:10:48;;;;;;;39.63;20.90;;;4.20;99.90;;;;;;10076891;29;20248;-81
2023/12/04 23:15:50;;;;;;;37.77;20.60;;;4.70;99.90;;;;;;10090823;29;20246;-81
2023/12/04 23:20:53;;;;;;;44.23;25.70;;;4.60;99.90;;;;;;10093838;29;20242;-81
2023/12/04 23:26:00;;;;;;;45.90;23.80;;;4.50;99.90;;;;;;10098001;29;20726;-81
2023/12/04 23:31:02;;;;;;;33.30;18.00;;;4.50;99.90;;;;;;10098073;29;20242;-81
2023/12/04 23:36:06;;;;;;;45.63;21.97;;;4.20;99.90;;;;;;10098256;29;20680;-81
2023/12/04 23:41:08;;;;;;;46.67;25.07;;;4.30;99.90;;;;;;10093628;29;20237;-81
2023/12/04 23:46:11;;;;;;;38.13;21.63;;;3.50;99.90;;;;;;10095668;29;20303;-81
2023/12/04 23:51:13;;;;;;;26.17;14.93;;;3.60;99.90;;;;;;10067402;29;20241;-81
2023/12/04 23:56:16;;;;;;;31.13;18.43;;;4.00;99.90;;;;;;10058643;29;20241;-81
